sensor_id;sensor_type;location;lat;lon;timestamp;pressure;altitude;pressure_sealevel;temperature;humidity
10700;BME280;5401;41.986;21.452;2024-02-26T00:00:26;97870.13;;;13.42;77.00
10700;BME280;5401;41.986;21.452;2024-02-26T00:02:54;97867.38;;;13.37;77.34
10700;BME280;5401;41.986;21.452;2024-02-26T00:05:22;97875.91;;;13.34;78.16
10700;BME280;5401;41.986;21.452;2024-02-26T00:07:51;97869.38;;;13.30;78.70
10700;BME280;5401;41.986;21.452;2024-02-26T00:10:18;97864.38;;;13.22;78.33
10700;BME280;5401;41.986;21.452;2024-02-26T00:12:47;97869.59;;;13.29;77.96
10700;BME280;5401;41.986;21.452;2024-02-26T00:15:15;97869.13;;;13.32;78.94
10700;BME280;5401;41.986;21.452;2024-02-26T00:17:42;97854.38;;;13.34;77.94
10700;BME280;5401;41.986;21.452;2024-02-26T00:20:11;97864.34;;;13.34;78.66
10700;BME280;5401;41.986;21.452;2024-02-26T00:22:39;97841.91;;;13.28;79.34
10700;BME280;5401;41.986;21.452;2024-02-26T00:25:08;97863.59;;;13.38;78.98
10700;BME280;5401;41.986;21.452;2024-02-26T00:27:38;97854.72;;;13.38;78.27
10700;BME280;5401;41.986;21.452;2024-02-26T00:30:08;97860.69;;;13.40;78.23
10700;BME280;5401;41.986;21.452;2024-02-26T00:32:36;97866.69;;;13.30;78.45
10700;BME280;5401;41.986;21.452;2024-02-26T00:35:04;97861.69;;;13.22;79.72
10700;BME280;5401;41.986;21.452;2024-02-26T00:37:32;97856.97;;;13.13;79.15
10700;BME280;5401;41.986;21.452;2024-02-26T00:39:59;97859.53;;;13.08;79.95
10700;BME280;5401;41.986;21.452;2024-02-26T00:42:29;97864.53;;;13.16;79.95
10700;BME280;5401;41.986;21.452;2024-02-26T00:44:56;97848.44;;;13.05;79.64
10700;BME280;5401;41.986;21.452;2024-02-26T00:47:24;97856.75;;;13.03;79.38
10700;BME280;5401;41.986;21.452;2024-02-26T00:49:51;97854.22;;;12.97;80.52
10700;BME280;5401;41.986;21.452;2024-02-26T00:52:19;97858.19;;;12.94;80.07
10700;BME280;5401;41.986;21.452;2024-02-26T00:54:46;97859.25;;;12.93;80.65
10700;BME280;5401;41.986;21.452;2024-02-26T00:57:14;97810.94;;;12.71;80.58
10700;BME280;5401;41.986;21.452;2024-02-26T00:59:43;97861.22;;;12.98;80.96
10700;BME280;5401;41.986;21.452;2024-02-26T01:02:11;97856.50;;;13.05;81.95
10700;BME280;5401;41.986;21.452;2024-02-26T01:04:38;97852.03;;;13.10;81.36
10700;BME280;5401;41.986;21.452;2024-02-26T01:07:06;97819.75;;;12.94;81.86
10700;BME280;5401;41.986;21.452;2024-02-26T01:09:33;97841.88;;;13.12;81.12
10700;BME280;5401;41.986;21.452;2024-02-26T01:12:00;97834.88;;;13.11;81.72
10700;BME280;5401;41.986;21.452;2024-02-26T01:14:28;97839.75;;;13.14;81.46
10700;BME280;5401;41.986;21.452;2024-02-26T01:16:57;97829.69;;;13.21;81.10
10700;BME280;5401;41.986;21.452;2024-02-26T01:19:25;97834.56;;;13.24;80.68
10700;BME280;5401;41.986;21.452;2024-02-26T01:21:53;97810.78;;;13.16;81.27
10700;BME280;5401;41.986;21.452;2024-02-26T01:24:20;97822.50;;;13.26;81.12
10700;BME280;5401;41.986;21.452;2024-02-26T01:26:48;97820.91;;;13.25;81.42
10700;BME280;5401;41.986;21.452;2024-02-26T01:29:15;97798.88;;;13.12;80.77
10700;BME280;5401;41.986;21.452;2024-02-26T01:31:43;97826.59;;;13.29;81.88
10700;BME280;5401;41.986;21.452;2024-02-26T01:34:12;97819.81;;;13.26;80.91
10700;BME280;5401;41.986;21.452;2024-02-26T01:36:40;97814.38;;;13.21;80.72
10700;BME280;5401;41.986;21.452;2024-02-26T01:39:08;97803.69;;;13.26;81.08
10700;BME280;5401;41.986;21.452;2024-02-26T01:41:37;97778.44;;;13.11;81.39
10700;BME280;5401;41.986;21.452;2024-02-26T01:44:05;97808.09;;;13.32;81.72
10700;BME280;5401;41.986;21.452;2024-02-26T01:46:34;97809.19;;;13.31;81.73
10700;BME280;5401;41.986;21.452;2024-02-26T01:49:02;97810.00;;;13.32;81.05
10700;BME280;5401;41.986;21.452;2024-02-26T01:51:33;97799.47;;;13.30;80.63
10700;BME280;5401;41.986;21.452;2024-02-26T01:54:02;97801.34;;;13.30;81.11
10700;BME280;5401;41.986;21.452;2024-02-26T01:56:31;97768.00;;;13.15;81.38
10700;BME280;5401;41.986;21.452;2024-02-26T01:58:58;97795.47;;;13.33;81.57
10700;BME280;5401;41.986;21.452;2024-02-26T02:01:27;97763.69;;;13.14;81.39
10700;BME280;5401;41.986;21.452;2024-02-26T02:03:56;97789.38;;;13.21;81.35
10700;BME280;5401;41.986;21.452;2024-02-26T02:06:25;97804.13;;;13.35;81.36
10700;BME280;5401;41.986;21.452;2024-02-26T02:08:56;97799.47;;;13.30;80.71
10700;BME280;5401;41.986;21.452;2024-02-26T02:11:23;97803.22;;;13.29;81.50
10700;BME280;5401;41.986;21.452;2024-02-26T02:13:51;97794.59;;;13.27;81.60
10700;BME280;5401;41.986;21.452;2024-02-26T02:16:18;97792.13;;;13.26;82.05
10700;BME280;5401;41.986;21.452;2024-02-26T02:18:46;97799.72;;;13.29;81.67
10700;BME280;5401;41.986;21.452;2024-02-26T02:21:15;97792.47;;;13.29;81.06
10700;BME280;5401;41.986;21.452;2024-02-26T02:23:42;97791.41;;;13.30;80.99
10700;BME280;5401;41.986;21.452;2024-02-26T02:26:12;97789.28;;;13.32;80.43
10700;BME280;5401;41.986;21.452;2024-02-26T02:28:41;97795.16;;;13.29;81.05
10700;BME280;5401;41.986;21.452;2024-02-26T02:31:09;97795.75;;;13.31;80.46
10700;BME280;5401;41.986;21.452;2024-02-26T02:33:36;97789.22;;;13.27;80.69
10700;BME280;5401;41.986;21.452;2024-02-26T02:36:04;97786.69;;;13.21;81.68
10700;BME280;5401;41.986;21.452;2024-02-26T02:38:37;97723.91;;;12.83;81.01
10700;BME280;5401;41.986;21.452;2024-02-26T02:41:05;97780.63;;;13.14;81.89
10700;BME280;5401;41.986;21.452;2024-02-26T02:43:32;97774.44;;;13.14;81.33
10700;BME280;5401;41.986;21.452;2024-02-26T02:46:00;97786.91;;;13.19;80.79
10700;BME280;5401;41.986;21.452;2024-02-26T02:48:27;97784.69;;;13.17;81.94
10700;BME280;5401;41.986;21.452;2024-02-26T02:50:55;97791.22;;;13.20;81.31
10700;BME280;5401;41.986;21.452;2024-02-26T02:53:29;97793.09;;;13.20;80.35
10700;BME280;5401;41.986;21.452;2024-02-26T02:55:58;97787.50;;;13.21;81.24
10700;BME280;5401;41.986;21.452;2024-02-26T02:58:25;97787.72;;;13.20;80.39
10700;BME280;5401;41.986;21.452;2024-02-26T03:00:53;97788.81;;;13.19;80.71
10700;BME280;5401;41.986;21.452;2024-02-26T03:03:21;97787.16;;;13.18;81.58
10700;BME280;5401;41.986;21.452;2024-02-26T03:05:50;97790.34;;;13.15;81.48
10700;BME280;5401;41.986;21.452;2024-02-26T03:08:17;97788.94;;;13.13;80.74
10700;BME280;5401;41.986;21.452;2024-02-26T03:10:45;97789.78;;;13.13;80.51
10700;BME280;5401;41.986;21.452;2024-02-26T03:13:14;97788.13;;;13.12;81.34
10700;BME280;5401;41.986;21.452;2024-02-26T03:15:42;97788.03;;;13.07;80.52
10700;BME280;5401;41.986;21.452;2024-02-26T03:18:09;97789.91;;;13.07;80.56
10700;BME280;5401;41.986;21.452;2024-02-26T03:20:37;97787.34;;;13.00;80.26
10700;BME280;5401;41.986;21.452;2024-02-26T03:23:04;97784.25;;;12.92;81.25
10700;BME280;5401;41.986;21.452;2024-02-26T03:25:33;97792.31;;;12.92;81.17
10700;BME280;5401;41.986;21.452;2024-02-26T03:28:01;97782.88;;;12.89;81.47
10700;BME280;5401;41.986;21.452;2024-02-26T03:30:30;97777.72;;;12.88;81.63
10700;BME280;5401;41.986;21.452;2024-02-26T03:32:57;97790.69;;;12.91;81.03
10700;BME280;5401;41.986;21.452;2024-02-26T03:35:26;97781.72;;;12.85;80.68
10700;BME280;5401;41.986;21.452;2024-02-26T03:37:53;97777.97;;;12.86;81.70
10700;BME280;5401;41.986;21.452;2024-02-26T03:40:21;97748.25;;;12.65;81.65
10700;BME280;5401;41.986;21.452;2024-02-26T03:42:48;97787.81;;;12.81;81.14
10700;BME280;5401;41.986;21.452;2024-02-26T03:45:15;97787.44;;;12.78;81.84
10700;BME280;5401;41.986;21.452;2024-02-26T03:47:44;97790.84;;;12.73;81.24
10700;BME280;5401;41.986;21.452;2024-02-26T03:50:11;97797.75;;;12.69;81.27
10700;BME280;5401;41.986;21.452;2024-02-26T03:52:39;97792.25;;;12.64;81.85
10700;BME280;5401;41.986;21.452;2024-02-26T03:55:07;97790.06;;;12.61;81.89
10700;BME280;5401;41.986;21.452;2024-02-26T03:57:36;97787.03;;;12.58;81.20
10700;BME280;5401;41.986;21.452;2024-02-26T04:00:04;97793.13;;;12.53;82.17
10700;BME280;5401;41.986;21.452;2024-02-26T04:02:32;97796.31;;;12.50;81.64
10700;BME280;5401;41.986;21.452;2024-02-26T04:05:01;97795.13;;;12.47;82.23
10700;BME280;5401;41.986;21.452;2024-02-26T04:07:28;97788.63;;;12.43;82.41
10700;BME280;5401;41.986;21.452;2024-02-26T04:09:56;97793.63;;;12.39;81.59
10700;BME280;5401;41.986;21.452;2024-02-26T04:12:24;97797.63;;;12.37;81.88
10700;BME280;5401;41.986;21.452;2024-02-26T04:14:51;97790.50;;;12.31;81.61
10700;BME280;5401;41.986;21.452;2024-02-26T04:17:19;97791.53;;;12.30;82.61
10700;BME280;5401;41.986;21.452;2024-02-26T04:19:46;97795.53;;;12.27;82.63
10700;BME280;5401;41.986;21.452;2024-02-26T04:22:15;97791.44;;;12.25;81.82
10700;BME280;5401;41.986;21.452;2024-02-26T04:24:42;97804.28;;;12.23;82.92
10700;BME280;5401;41.986;21.452;2024-02-26T04:27:10;97806.38;;;12.21;82.71
10700;BME280;5401;41.986;21.452;2024-02-26T04:29:38;97761.28;;;11.95;83.08
10700;BME280;5401;41.986;21.452;2024-02-26T04:32:06;97808.50;;;12.19;82.66
10700;BME280;5401;41.986;21.452;2024-02-26T04:34:33;97801.38;;;12.13;83.09
10700;BME280;5401;41.986;21.452;2024-02-26T04:37:01;97795.44;;;12.11;82.25
10700;BME280;5401;41.986;21.452;2024-02-26T04:39:30;97803.03;;;12.14;82.81
10700;BME280;5401;41.986;21.452;2024-02-26T04:41:57;97810.22;;;12.13;82.13
10700;BME280;5401;41.986;21.452;2024-02-26T04:44:24;97806.16;;;12.11;83.13
10700;BME280;5401;41.986;21.452;2024-02-26T04:46:52;97810.50;;;12.12;82.60
10700;BME280;5401;41.986;21.452;2024-02-26T04:49:20;97814.00;;;12.12;82.13
10700;BME280;5401;41.986;21.452;2024-02-26T04:51:48;97803.47;;;12.11;82.34
10700;BME280;5401;41.986;21.452;2024-02-26T04:54:15;97808.84;;;12.11;83.47
10700;BME280;5401;41.986;21.452;2024-02-26T04:56:44;97793.59;;;12.00;82.99
10700;BME280;5401;41.986;21.452;2024-02-26T04:59:12;97810.50;;;12.12;82.28
10700;BME280;5401;41.986;21.452;2024-02-26T05:01:39;97810.22;;;12.13;83.10
10700;BME280;5401;41.986;21.452;2024-02-26T05:04:07;97809.44;;;12.13;83.05
10700;BME280;5401;41.986;21.452;2024-02-26T05:06:36;97810.22;;;12.13;83.08
10700;BME280;5401;41.986;21.452;2024-02-26T05:09:04;97810.00;;;12.15;83.15
10700;BME280;5401;41.986;21.452;2024-02-26T05:11:31;97818.41;;;12.18;82.07
10700;BME280;5401;41.986;21.452;2024-02-26T05:14:00;97812.34;;;12.23;82.24
10700;BME280;5401;41.986;21.452;2024-02-26T05:16:28;97811.63;;;12.27;82.43
10700;BME280;5401;41.986;21.452;2024-02-26T05:18:57;97812.78;;;12.31;82.82
10700;BME280;5401;41.986;21.452;2024-02-26T05:21:24;97814.44;;;12.32;81.95
10700;BME280;5401;41.986;21.452;2024-02-26T05:23:52;97822.81;;;12.36;82.85
10700;BME280;5401;41.986;21.452;2024-02-26T05:26:20;97823.38;;;12.38;82.97
10700;BME280;5401;41.986;21.452;2024-02-26T05:28:48;97819.19;;;12.42;81.79
10700;BME280;5401;41.986;21.452;2024-02-26T05:31:17;97835.88;;;12.44;82.57
10700;BME280;5401;41.986;21.452;2024-02-26T05:33:45;97831.06;;;12.46;82.60
10700;BME280;5401;41.986;21.452;2024-02-26T05:36:18;97830.28;;;12.45;82.38
10700;BME280;5401;41.986;21.452;2024-02-26T05:38:47;97834.00;;;12.44;81.96
10700;BME280;5401;41.986;21.452;2024-02-26T05:41:15;97827.34;;;12.47;83.06
10700;BME280;5401;41.986;21.452;2024-02-26T05:43:42;97837.84;;;12.48;81.73
10700;BME280;5401;41.986;21.452;2024-02-26T05:46:10;97838.69;;;12.48;83.10
10700;BME280;5401;41.986;21.452;2024-02-26T05:48:39;97836.00;;;12.48;81.77
10700;BME280;5401;41.986;21.452;2024-02-26T05:51:06;97843.56;;;12.51;82.50
10700;BME280;5401;41.986;21.452;2024-02-26T05:53:34;97836.88;;;12.54;82.68
10700;BME280;5401;41.986;21.452;2024-02-26T05:56:01;97841.22;;;12.55;82.24
10700;BME280;5401;41.986;21.452;2024-02-26T05:58:29;97847.19;;;12.57;81.78
10700;BME280;5401;41.986;21.452;2024-02-26T06:00:57;97837.81;;;12.59;82.63
10700;BME280;5401;41.986;21.452;2024-02-26T06:03:26;97841.66;;;12.63;82.62
10700;BME280;5401;41.986;21.452;2024-02-26T06:05:55;97843.28;;;12.64;82.02
10700;BME280;5401;41.986;21.452;2024-02-26T06:08:22;97844.78;;;12.72;81.38
10700;BME280;5401;41.986;21.452;2024-02-26T06:10:49;97851.47;;;12.81;82.42
10700;BME280;5401;41.986;21.452;2024-02-26T06:13:17;97851.22;;;12.82;81.53
10700;BME280;5401;41.986;21.452;2024-02-26T06:15:45;97842.44;;;12.86;81.99
10700;BME280;5401;41.986;21.452;2024-02-26T06:18:12;97844.50;;;12.96;80.71
10700;BME280;5401;41.986;21.452;2024-02-26T06:20:40;97844.56;;;13.12;80.36
10700;BME280;5401;41.986;21.452;2024-02-26T06:23:09;97846.56;;;13.33;81.45
10700;BME280;5401;41.986;21.452;2024-02-26T06:25:37;97847.81;;;13.58;79.50
10700;BME280;5401;41.986;21.452;2024-02-26T06:28:05;97843.50;;;13.89;79.82
10700;BME280;5401;41.986;21.452;2024-02-26T06:30:32;97841.81;;;14.16;78.77
10700;BME280;5401;41.986;21.452;2024-02-26T06:33:00;97848.38;;;14.41;77.46
10700;BME280;5401;41.986;21.452;2024-02-26T06:35:27;97848.59;;;14.77;76.54
10700;BME280;5401;41.986;21.452;2024-02-26T06:37:55;97855.03;;;15.19;75.62
10700;BME280;5401;41.986;21.452;2024-02-26T06:40:24;97851.88;;;15.53;73.94
10700;BME280;5401;41.986;21.452;2024-02-26T06:42:51;97837.72;;;15.67;73.13
10700;BME280;5401;41.986;21.452;2024-02-26T06:45:19;97843.53;;;15.85;72.35
10700;BME280;5401;41.986;21.452;2024-02-26T06:47:47;97847.75;;;16.03;71.76
10700;BME280;5401;41.986;21.452;2024-02-26T06:50:14;97849.22;;;16.56;69.99
10700;BME280;5401;41.986;21.452;2024-02-26T06:52:44;97852.16;;;17.05;69.45
10700;BME280;5401;41.986;21.452;2024-02-26T06:55:11;97819.22;;;17.18;67.69
10700;BME280;5401;41.986;21.452;2024-02-26T06:57:40;97851.56;;;17.74;66.26
10700;BME280;5401;41.986;21.452;2024-02-26T07:00:09;97846.97;;;17.94;66.37
10700;BME280;5401;41.986;21.452;2024-02-26T07:02:40;97854.28;;;17.98;65.78
10700;BME280;5401;41.986;21.452;2024-02-26T07:05:08;97849.97;;;18.12;65.63
10700;BME280;5401;41.986;21.452;2024-02-26T07:07:36;97846.97;;;18.23;64.41
10700;BME280;5401;41.986;21.452;2024-02-26T07:10:04;97853.72;;;18.41;64.68
10700;BME280;5401;41.986;21.452;2024-02-26T07:12:32;97853.69;;;18.56;64.55
10700;BME280;5401;41.986;21.452;2024-02-26T07:15:01;97854.72;;;18.74;64.38
10700;BME280;5401;41.986;21.452;2024-02-26T07:17:29;97843.00;;;18.98;63.65
10700;BME280;5401;41.986;21.452;2024-02-26T07:19:56;97846.13;;;19.35;63.65
10700;BME280;5401;41.986;21.452;2024-02-26T07:22:24;97836.69;;;19.66;62.88
10700;BME280;5401;41.986;21.452;2024-02-26T07:24:51;97847.41;;;19.90;62.25
10700;BME280;5401;41.986;21.452;2024-02-26T07:27:19;97809.47;;;20.08;61.82
10700;BME280;5401;41.986;21.452;2024-02-26T07:29:47;97836.50;;;20.51;61.31
10700;BME280;5401;41.986;21.452;2024-02-26T07:32:16;97839.38;;;20.93;60.58
10700;BME280;5401;41.986;21.452;2024-02-26T07:34:43;97835.94;;;21.06;60.42
10700;BME280;5401;41.986;21.452;2024-02-26T07:37:11;97842.28;;;20.96;60.10
10700;BME280;5401;41.986;21.452;2024-02-26T07:39:38;97835.97;;;20.82;59.55
10700;BME280;5401;41.986;21.452;2024-02-26T07:42:06;97835.47;;;20.75;59.81
10700;BME280;5401;41.986;21.452;2024-02-26T07:44:33;97852.56;;;21.04;59.68
10700;BME280;5401;41.986;21.452;2024-02-26T07:47:01;97848.50;;;21.25;59.47
10700;BME280;5401;41.986;21.452;2024-02-26T07:49:30;97855.09;;;21.42;59.11
10700;BME280;5401;41.986;21.452;2024-02-26T07:51:57;97851.38;;;21.33;58.84
10700;BME280;5401;41.986;21.452;2024-02-26T07:54:25;97847.81;;;21.33;59.02
10700;BME280;5401;41.986;21.452;2024-02-26T07:56:52;97836.56;;;21.21;58.88
10700;BME280;5401;41.986;21.452;2024-02-26T07:59:19;97850.38;;;21.24;58.99
10700;BME280;5401;41.986;21.452;2024-02-26T08:01:49;97838.66;;;21.06;58.53
10700;BME280;5401;41.986;21.452;2024-02-26T08:04:17;97844.22;;;20.96;58.34
10700;BME280;5401;41.986;21.452;2024-02-26T08:06:46;97838.88;;;20.86;58.92
10700;BME280;5401;41.986;21.452;2024-02-26T08:09:14;97843.53;;;20.85;58.59
10700;BME280;5401;41.986;21.452;2024-02-26T08:11:41;97818.09;;;20.72;58.51
10700;BME280;5401;41.986;21.452;2024-02-26T08:14:09;97834.59;;;20.80;58.32
10700;BME280;5401;41.986;21.452;2024-02-26T08:16:36;97848.63;;;20.69;58.27
10700;BME280;5401;41.986;21.452;2024-02-26T08:19:04;97832.31;;;20.69;58.05
10700;BME280;5401;41.986;21.452;2024-02-26T08:21:31;97838.59;;;20.64;58.91
10700;BME280;5401;41.986;21.452;2024-02-26T08:24:00;97841.81;;;20.66;58.50
10700;BME280;5401;41.986;21.452;2024-02-26T08:26:28;97834.78;;;20.65;58.49
10700;BME280;5401;41.986;21.452;2024-02-26T08:28:56;97828.53;;;20.65;58.20
10700;BME280;5401;41.986;21.452;2024-02-26T08:31:24;97821.50;;;20.59;58.24
10700;BME280;5401;41.986;21.452;2024-02-26T08:33:51;97836.59;;;20.75;57.78
10700;BME280;5401;41.986;21.452;2024-02-26T08:36:19;97828.00;;;20.86;57.88
10700;BME280;5401;41.986;21.452;2024-02-26T08:38:46;97828.16;;;20.94;57.14
10700;BME280;5401;41.986;21.452;2024-02-26T08:41:15;97797.34;;;20.80;56.98
10700;BME280;5401;41.986;21.452;2024-02-26T08:43:43;97826.59;;;21.11;57.25
10700;BME280;5401;41.986;21.452;2024-02-26T08:46:12;97828.69;;;21.19;56.89
10700;BME280;5401;41.986;21.452;2024-02-26T08:48:40;97826.13;;;21.28;56.62
10700;BME280;5401;41.986;21.452;2024-02-26T08:51:08;97828.84;;;21.28;56.09
10700;BME280;5401;41.986;21.452;2024-02-26T08:53:35;97824.91;;;21.39;56.70
10700;BME280;5401;41.986;21.452;2024-02-26T08:56:04;97823.44;;;21.46;56.26
10700;BME280;5401;41.986;21.452;2024-02-26T08:58:33;97821.66;;;21.73;55.76
10700;BME280;5401;41.986;21.452;2024-02-26T09:01:02;97824.88;;;21.93;55.50
10700;BME280;5401;41.986;21.452;2024-02-26T09:03:29;97825.72;;;21.94;55.51
10700;BME280;5401;41.986;21.452;2024-02-26T09:05:57;97809.03;;;21.95;54.79
10700;BME280;5401;41.986;21.452;2024-02-26T09:08:24;97819.66;;;22.15;55.01
10700;BME280;5401;41.986;21.452;2024-02-26T09:10:52;97806.97;;;22.24;54.28
10700;BME280;5401;41.986;21.452;2024-02-26T09:13:19;97796.47;;;22.31;54.30
10700;BME280;5401;41.986;21.452;2024-02-26T09:15:48;97809.44;;;22.39;53.85
10700;BME280;5401;41.986;21.452;2024-02-26T09:18:16;97811.47;;;22.15;53.82
10700;BME280;5401;41.986;21.452;2024-02-26T09:20:43;97819.81;;;21.87;53.71
10700;BME280;5401;41.986;21.452;2024-02-26T09:23:14;97806.34;;;21.77;54.04
10700;BME280;5401;41.986;21.452;2024-02-26T09:25:41;97811.88;;;21.90;53.80
10700;BME280;5401;41.986;21.452;2024-02-26T09:28:09;97820.19;;;21.81;52.74
10700;BME280;5401;41.986;21.452;2024-02-26T09:30:36;97816.81;;;21.29;53.64
10700;BME280;5401;41.986;21.452;2024-02-26T09:33:06;97812.88;;;20.98;53.78
10700;BME280;5401;41.986;21.452;2024-02-26T09:35:33;97824.69;;;20.66;53.66
10700;BME280;5401;41.986;21.452;2024-02-26T09:38:01;97810.28;;;20.37;54.23
10700;BME280;5401;41.986;21.452;2024-02-26T09:40:28;97807.22;;;20.43;53.86
10700;BME280;5401;41.986;21.452;2024-02-26T09:42:59;97820.19;;;20.51;53.51
10700;BME280;5401;41.986;21.452;2024-02-26T09:45:28;97820.38;;;20.32;53.81
10700;BME280;5401;41.986;21.452;2024-02-26T09:47:57;97791.59;;;20.02;53.59
10700;BME280;5401;41.986;21.452;2024-02-26T09:50:27;97804.56;;;19.77;53.64
10700;BME280;5401;41.986;21.452;2024-02-26T09:52:55;97792.19;;;19.62;53.69
10700;BME280;5401;41.986;21.452;2024-02-26T09:55:26;97787.50;;;19.67;53.16
10700;BME280;5401;41.986;21.452;2024-02-26T09:57:54;97771.47;;;19.70;53.68
10700;BME280;5401;41.986;21.452;2024-02-26T10:00:22;97798.94;;;20.02;53.35
10700;BME280;5401;41.986;21.452;2024-02-26T10:02:51;97805.56;;;20.19;52.58
10700;BME280;5401;41.986;21.452;2024-02-26T10:05:19;97793.13;;;20.13;52.63
10700;BME280;5401;41.986;21.452;2024-02-26T10:07:48;97793.13;;;20.13;52.34
10700;BME280;5401;41.986;21.452;2024-02-26T10:10:16;97789.50;;;20.23;52.20
10700;BME280;5401;41.986;21.452;2024-02-26T10:12:44;97794.94;;;20.23;51.97
10700;BME280;5401;41.986;21.452;2024-02-26T10:15:11;97796.75;;;20.04;52.13
10700;BME280;5401;41.986;21.452;2024-02-26T10:17:39;97784.94;;;19.85;51.93
10700;BME280;5401;41.986;21.452;2024-02-26T10:20:12;97795.38;;;19.68;52.01
10700;BME280;5401;41.986;21.452;2024-02-26T10:22:41;97775.50;;;19.40;52.32
10700;BME280;5401;41.986;21.452;2024-02-26T10:25:10;97792.00;;;19.48;52.12
10700;BME280;5401;41.986;21.452;2024-02-26T10:27:37;97767.03;;;19.46;51.88
10700;BME280;5401;41.986;21.452;2024-02-26T10:30:16;97769.31;;;19.67;51.80
10700;BME280;5401;41.986;21.452;2024-02-26T10:32:46;97771.13;;;19.82;51.50
10700;BME280;5401;41.986;21.452;2024-02-26T10:35:14;97760.84;;;19.74;51.14
10700;BME280;5401;41.986;21.452;2024-02-26T10:37:42;97763.19;;;19.85;51.49
10700;BME280;5401;41.986;21.452;2024-02-26T10:40:11;97753.22;;;19.76;50.99
10700;BME280;5401;41.986;21.452;2024-02-26T10:42:39;97756.16;;;19.46;51.06
10700;BME280;5401;41.986;21.452;2024-02-26T10:45:08;97764.94;;;19.33;51.00
10700;BME280;5401;41.986;21.452;2024-02-26T10:47:36;97750.22;;;19.01;50.72
10700;BME280;5401;41.986;21.452;2024-02-26T10:50:05;97743.75;;;18.93;50.79
10700;BME280;5401;41.986;21.452;2024-02-26T10:52:34;97759.22;;;18.87;50.57
10700;BME280;5401;41.986;21.452;2024-02-26T10:55:03;97745.66;;;18.87;49.88
10700;BME280;5401;41.986;21.452;2024-02-26T10:57:34;97739.53;;;18.67;49.69
10700;BME280;5401;41.986;21.452;2024-02-26T11:00:04;97760.94;;;18.63;50.16
10700;BME280;5401;41.986;21.452;2024-02-26T11:02:33;97763.66;;;18.63;49.91
10700;BME280;5401;41.986;21.452;2024-02-26T11:05:02;97746.53;;;18.68;49.80
10700;BME280;5401;41.986;21.452;2024-02-26T11:07:31;97747.81;;;18.95;49.04
10700;BME280;5401;41.986;21.452;2024-02-26T11:09:59;97744.25;;;18.99;48.95
10700;BME280;5401;41.986;21.452;2024-02-26T11:12:28;97738.00;;;18.94;48.69
10700;BME280;5401;41.986;21.452;2024-02-26T11:14:58;97721.66;;;18.61;48.51
10700;BME280;5401;41.986;21.452;2024-02-26T11:17:28;97732.88;;;18.97;48.18
10700;BME280;5401;41.986;21.452;2024-02-26T11:19:58;97737.78;;;18.95;47.88
10700;BME280;5401;41.986;21.452;2024-02-26T11:22:26;97725.56;;;18.88;48.29
10700;BME280;5401;41.986;21.452;2024-02-26T11:24:55;97723.69;;;18.84;48.08
10700;BME280;5401;41.986;21.452;2024-02-26T11:27:25;97721.25;;;18.82;48.01
10700;BME280;5401;41.986;21.452;2024-02-26T11:29:58;97725.66;;;18.73;48.23
10700;BME280;5401;41.986;21.452;2024-02-26T11:32:27;97664.25;;;18.44;47.46
10700;BME280;5401;41.986;21.452;2024-02-26T11:34:56;97687.47;;;18.65;47.52
10700;BME280;5401;41.986;21.452;2024-02-26T11:37:25;97733.47;;;18.80;47.46
10700;BME280;5401;41.986;21.452;2024-02-26T11:39:53;97734.84;;;18.77;47.59
10700;BME280;5401;41.986;21.452;2024-02-26T11:42:23;97739.44;;;18.82;47.30
10700;BME280;5401;41.986;21.452;2024-02-26T11:44:51;97716.41;;;18.79;47.67
10700;BME280;5401;41.986;21.452;2024-02-26T11:47:22;97736.19;;;18.80;46.98
10700;BME280;5401;41.986;21.452;2024-02-26T11:49:49;97711.47;;;18.91;47.26
10700;BME280;5401;41.986;21.452;2024-02-26T11:52:17;97711.31;;;19.16;47.40
10700;BME280;5401;41.986;21.452;2024-02-26T11:54:46;97700.47;;;19.16;47.21
10700;BME280;5401;41.986;21.452;2024-02-26T11:57:21;97688.88;;;19.05;46.98
10700;BME280;5401;41.986;21.452;2024-02-26T11:59:49;97740.06;;;19.22;46.64
10700;BME280;5401;41.986;21.452;2024-02-26T12:02:46;97704.59;;;19.08;46.72
10700;BME280;5401;41.986;21.452;2024-02-26T12:05:16;97704.06;;;19.06;46.81
10700;BME280;5401;41.986;21.452;2024-02-26T12:07:47;97708.41;;;19.07;46.67
10700;BME280;5401;41.986;21.452;2024-02-26T12:10:17;97693.72;;;19.08;47.21
10700;BME280;5401;41.986;21.452;2024-02-26T12:12:49;97688.63;;;19.02;46.44
10700;BME280;5401;41.986;21.452;2024-02-26T12:15:17;97708.59;;;19.16;46.61
10700;BME280;5401;41.986;21.452;2024-02-26T12:17:50;97713.13;;;19.30;46.65
10700;BME280;5401;41.986;21.452;2024-02-26T12:20:18;97701.06;;;19.46;46.12
10700;BME280;5401;41.986;21.452;2024-02-26T12:22:47;97710.41;;;19.63;46.13
10700;BME280;5401;41.986;21.452;2024-02-26T12:25:16;97678.44;;;19.55;45.91
10700;BME280;5401;41.986;21.452;2024-02-26T12:27:43;97706.63;;;19.92;45.83
10700;BME280;5401;41.986;21.452;2024-02-26T12:30:12;97697.78;;;19.77;45.31
10700;BME280;5401;41.986;21.452;2024-02-26T12:32:39;97701.03;;;19.79;45.20
10700;BME280;5401;41.986;21.452;2024-02-26T12:35:09;97696.91;;;19.86;45.62
10700;BME280;5401;41.986;21.452;2024-02-26T12:37:36;97700.50;;;19.82;44.91
10700;BME280;5401;41.986;21.452;2024-02-26T12:40:06;97712.34;;;19.91;45.17
10700;BME280;5401;41.986;21.452;2024-02-26T12:42:34;97701.03;;;19.79;44.87
10700;BME280;5401;41.986;21.452;2024-02-26T12:45:06;97709.78;;;19.71;44.96
10700;BME280;5401;41.986;21.452;2024-02-26T12:47:37;97709.97;;;19.84;44.88
10700;BME280;5401;41.986;21.452;2024-02-26T12:50:06;97702.16;;;20.06;44.50
10700;BME280;5401;41.986;21.452;2024-02-26T12:52:39;97676.69;;;19.97;44.63
10700;BME280;5401;41.986;21.452;2024-02-26T12:55:07;97669.25;;;19.79;44.30
10700;BME280;5401;41.986;21.452;2024-02-26T12:57:37;97636.84;;;19.60;44.73
10700;BME280;5401;41.986;21.452;2024-02-26T13:00:06;97688.66;;;19.96;44.34
10700;BME280;5401;41.986;21.452;2024-02-26T13:02:36;97681.59;;;19.95;44.03
10700;BME280;5401;41.986;21.452;2024-02-26T13:05:06;97699.25;;;19.98;44.05